« Back
NWS Peachtree City, Ga » Text Product » MCN Terminal Aerodrome Forecast


Printer-friendly Version
Current Version              Previous Versions:   1  2  3  4  5  6  7  8  9  

Terminal Aerodrome Forecast

421
FTUS42 KFFC 261700
TAFMCN
TAF
KMCN 261720Z 2618/2718 05009KT P6SM SCT045
     FM270000 06003KT P6SM SKC
     FM271400 07004KT P6SM FEW020=

USA.gov is the U.S. government's official web portal to all federal, state and local government web resources and services.